Time;durP1;ratioP1;P1;durP2;ratioP2;P2;SDS_P1;SDS_P2;PMS_P1;PMS_P2;Temp;Humidity;BMP_temperature;BMP_pressure;BME280_temperature;BME280_humidity;BME280_pressure;Samples;Min_cycle;Max_cycle;Signal;HPM_P1;HPM_P2
2021/08/07 00:02:20;;;;;;;2.20;0.60;;;;;;;11.27;100.00;97965.31;6306006;22;20100;-74
2021/08/07 00:05:23;;;;;;;2.47;0.90;;;;;;;11.28;100.00;97963.28;6306770;22;20045;-76
2021/08/07 00:08:26;;;;;;;0.55;0.55;;;;;;;11.35;100.00;97971.03;6306477;22;20022;-77
2021/08/07 00:11:29;;;;;;;0.57;0.55;;;;;;;11.47;100.00;97966.84;6306078;22;20026;-74
2021/08/07 00:14:32;;;;;;;0.65;0.55;;;;;;;11.63;100.00;97963.03;6305966;22;20030;-74
2021/08/07 00:17:35;;;;;;;1.50;0.63;;;;;;;11.81;100.00;97962.31;6307049;22;20084;-74
2021/08/07 00:20:39;;;;;;;3.53;1.00;;;;;;;11.90;100.00;97967.50;6307744;22;20080;-77
2021/08/07 00:23:42;;;;;;;4.88;1.13;;;;;;;12.08;100.00;97974.34;6306797;22;20114;-77
2021/08/07 00:26:45;;;;;;;3.95;0.40;;;;;;;12.22;100.00;97961.16;6306085;22;20022;-76
2021/08/07 00:29:48;;;;;;;1.60;0.98;;;;;;;12.39;100.00;97961.66;6306032;22;20042;-77
2021/08/07 00:32:51;;;;;;;1.58;0.57;;;;;;;12.44;100.00;97966.38;6305022;22;20333;-77
2021/08/07 00:35:54;;;;;;;1.23;0.60;;;;;;;12.52;100.00;97961.66;6306238;22;20084;-74
2021/08/07 00:38:57;;;;;;;1.48;1.38;;;;;;;12.55;100.00;97960.59;6306114;22;20441;-77
2021/08/07 00:42:00;;;;;;;4.57;0.77;;;;;;;12.59;100.00;97961.03;6305643;22;20391;-75
2021/08/07 00:45:04;;;;;;;3.63;1.70;;;;;;;12.61;100.00;97948.03;6306006;22;20050;-77
2021/08/07 00:48:08;;;;;;;1.05;0.85;;;;;;;12.67;100.00;97950.72;6305800;22;20383;-77
2021/08/07 00:51:11;;;;;;;5.88;0.98;;;;;;;12.72;100.00;97952.66;6305737;22;20040;-77
2021/08/07 00:54:14;;;;;;;1.42;0.65;;;;;;;12.76;100.00;97941.91;6305770;22;20384;-77
2021/08/07 00:57:17;;;;;;;3.90;0.68;;;;;;;12.79;100.00;97938.06;6305323;22;20379;-74
2021/08/07 01:00:20;;;;;;;1.98;0.40;;;;;;;12.84;100.00;97937.94;6304321;22;20027;-75
2021/08/07 01:03:45;;;;;;;5.13;0.88;;;;;;;12.88;100.00;97932.06;6304850;22;20468;-74
2021/08/07 01:07:03;;;;;;;1.08;0.57;;;;;;;12.90;100.00;97935.81;6305484;22;20332;-73
2021/08/07 01:10:17;;;;;;;1.90;0.73;;;;;;;12.94;100.00;97935.47;6305611;22;20022;-76
2021/08/07 01:13:28;;;;;;;1.98;0.30;;;;;;;12.94;100.00;97924.31;6304382;22;20027;-74
2021/08/07 01:16:35;;;;;;;11.90;0.90;;;;;;;12.96;100.00;97930.09;6305224;22;20096;-76
2021/08/07 01:19:49;;;;;;;2.85;0.82;;;;;;;12.97;100.00;97930.84;6305079;22;20079;-74
2021/08/07 01:23:16;;;;;;;0.50;0.47;;;;;;;12.97;100.00;97923.25;6305238;22;20022;-76
2021/08/07 01:26:18;;;;;;;4.22;0.65;;;;;;;13.00;100.00;97924.94;6304296;22;20022;-76
2021/08/07 01:29:23;;;;;;;4.30;0.35;;;;;;;13.03;100.00;97906.34;6304682;22;20095;-76
2021/08/07 01:32:31;;;;;;;1.20;0.52;;;;;;;13.01;100.00;97912.47;6304684;22;20072;-76
2021/08/07 01:35:35;;;;;;;2.15;0.60;;;;;;;13.02;100.00;97907.63;6304928;22;20472;-76
2021/08/07 01:38:38;;;;;;;1.63;0.70;;;;;;;13.04;100.00;97899.47;6305078;22;20377;-76
2021/08/07 01:41:42;;;;;;;3.92;1.08;;;;;;;13.03;100.00;97895.94;6304765;22;20476;-76
2021/08/07 01:44:45;;;;;;;5.00;0.73;;;;;;;13.02;100.00;97891.63;6305120;22;20042;-76
2021/08/07 01:47:56;;;;;;;0.93;0.35;;;;;;;13.00;100.00;97897.00;6305076;22;20068;-76
2021/08/07 01:51:22;;;;;;;4.50;1.52;;;;;;;13.03;100.00;97893.13;6305318;22;20065;-76
2021/08/07 01:54:36;;;;;;;3.72;0.75;;;;;;;12.94;100.00;97891.53;6304001;22;20476;-77
2021/08/07 01:57:49;;;;;;;1.42;0.85;;;;;;;12.79;100.00;97885.00;6304610;22;20042;-76
2021/08/07 02:00:53;;;;;;;6.47;1.70;;;;;;;12.75;100.00;97890.91;6304630;22;20022;-76
2021/08/07 02:03:59;;;;;;;3.58;1.08;;;;;;;12.68;100.00;97885.22;6304064;22;20021;-76
2021/08/07 02:07:02;;;;;;;10.93;2.05;;;;;;;12.57;100.00;97883.38;6303820;22;20341;-76
2021/08/07 02:10:06;;;;;;;8.38;1.70;;;;;;;12.50;100.00;97881.22;6304138;22;20144;-77
2021/08/07 02:13:12;;;;;;;16.05;1.67;;;;;;;12.46;100.00;97885.63;6304837;22;20022;-76
2021/08/07 02:16:17;;;;;;;2.30;1.48;;;;;;;12.47;100.00;97881.56;6304652;22;20022;-76
2021/08/07 02:19:21;;;;;;;2.45;1.58;;;;;;;12.46;100.00;97880.81;6303486;22;20030;-76
2021/08/07 02:22:25;;;;;;;5.68;1.55;;;;;;;12.42;100.00;97891.53;6304113;22;20476;-78
2021/08/07 02:25:28;;;;;;;15.25;1.90;;;;;;;12.41;100.00;97881.66;6285549;22;20345;-76
2021/08/07 02:28:31;;;;;;;3.92;1.42;;;;;;;12.42;100.00;97880.38;6304430;22;20394;-77
2021/08/07 02:31:35;;;;;;;0.75;0.75;;;;;;;12.47;100.00;97881.56;6305353;22;20042;-76
2021/08/07 02:34:39;;;;;;;2.85;0.77;;;;;;;12.48;100.00;97878.22;6306730;22;20088;-76
2021/08/07 02:37:43;;;;;;;1.10;0.90;;;;;;;12.51;100.00;97871.56;6307113;22;20343;-76
2021/08/07 02:40:45;;;;;;;1.75;1.08;;;;;;;12.55;100.00;97876.81;6307077;22;20069;-76
2021/08/07 02:43:49;;;;;;;1.83;1.25;;;;;;;12.56;100.00;97870.69;6306874;22;20080;-76
2021/08/07 02:46:52;;;;;;;0.60;0.38;;;;;;;12.59;100.00;97877.25;6306738;22;20072;-76
2021/08/07 02:49:55;;;;;;;3.85;0.77;;;;;;;12.60;100.00;97875.97;6307038;22;20471;-77
2021/08/07 02:52:59;;;;;;;2.30;0.50;;;;;;;12.62;100.00;97873.41;6306783;22;20069;-76
2021/08/07 02:56:02;;;;;;;1.23;0.57;;;;;;;12.64;100.00;97870.81;6306409;22;20103;-76
2021/08/07 02:59:05;;;;;;;0.20;0.10;;;;;;;12.71;100.00;97865.31;6306548;22;20140;-76
2021/08/07 03:02:08;;;;;;;3.60;0.70;;;;;;;12.72;100.00;97857.69;6306098;22;20025;-77
2021/08/07 03:05:11;;;;;;;2.33;1.20;;;;;;;12.77;100.00;97860.41;6306723;22;20018;-76
2021/08/07 03:08:14;;;;;;;1.65;0.73;;;;;;;12.78;100.00;97861.13;6306737;22;20065;-76
2021/08/07 03:11:17;;;;;;;1.08;0.55;;;;;;;12.77;100.00;97856.84;6306426;22;20026;-76
2021/08/07 03:14:20;;;;;;;1.85;0.93;;;;;;;12.77;100.00;97848.47;6305786;22;20062;-76
2021/08/07 03:17:22;;;;;;;0.95;0.60;;;;;;;12.81;100.00;97860.06;6306412;22;20027;-77
2021/08/07 03:20:31;;;;;;;2.08;0.80;;;;;;;12.83;100.00;97849.84;6306527;22;20106;-76
2021/08/07 03:23:34;;;;;;;1.27;0.30;;;;;;;12.83;100.00;97835.13;6306353;22;20018;-76
2021/08/07 03:26:37;;;;;;;0.75;0.57;;;;;;;12.82;100.00;97833.66;6306223;22;22327;-76
2021/08/07 03:29:40;;;;;;;5.10;0.55;;;;;;;12.79;100.00;97829.13;6306105;22;20025;-77
2021/08/07 03:32:43;;;;;;;0.82;0.47;;;;;;;12.76;100.00;97824.59;6305864;22;20464;-76
2021/08/07 03:35:46;;;;;;;14.38;0.70;;;;;;;12.75;100.00;97823.88;6306393;22;20076;-76
2021/08/07 03:38:49;;;;;;;0.40;0.40;;;;;;;12.76;100.00;97824.59;6306552;22;20029;-77
2021/08/07 03:41:53;;;;;;;1.88;0.70;;;;;;;12.77;100.00;97817.75;6306233;22;20048;-76
2021/08/07 03:44:55;;;;;;;0.68;0.52;;;;;;;12.77;100.00;97809.38;6306339;22;20506;-76
2021/08/07 03:52:14;;;;;;;0.32;0.30;;;;;;;12.67;100.00;97806.25;6305858;22;20068;-77
2021/08/07 03:55:17;;;;;;;2.20;1.15;;;;;;;12.57;100.00;97801.66;6305507;22;20022;-76
2021/08/07 03:58:20;;;;;;;1.55;0.90;;;;;;;12.48;100.00;97805.63;6305772;22;20053;-76
2021/08/07 04:01:22;;;;;;;0.60;0.50;;;;;;;12.42;100.00;97801.44;6305626;22;20541;-77
2021/08/07 04:04:26;;;;;;;4.50;0.73;;;;;;;12.32;100.00;97803.19;6306024;22;20091;-76
2021/08/07 04:07:28;;;;;;;2.63;0.52;;;;;;;12.25;100.00;97801.03;6306117;22;20037;-76
2021/08/07 04:10:32;;;;;;;0.85;0.52;;;;;;;12.25;100.00;97809.41;6305846;22;20050;-77
2021/08/07 04:13:36;;;;;;;0.82;0.20;;;;;;;12.19;100.00;97803.94;6305510;22;20349;-76
2021/08/07 04:16:39;;;;;;;1.30;0.77;;;;;;;12.15;100.00;97801.44;6306475;22;20026;-76
2021/08/07 04:19:42;;;;;;;1.30;0.75;;;;;;;12.09;100.00;97797.25;6306766;22;20517;-76
2021/08/07 04:22:45;;;;;;;3.83;0.73;;;;;;;12.06;100.00;97799.06;6306199;22;20022;-77
2021/08/07 04:25:48;;;;;;;0.85;0.38;;;;;;;11.99;100.00;97788.59;6306019;22;20467;-76
2021/08/07 04:28:51;;;;;;;0.80;0.43;;;;;;;11.92;100.00;97783.63;6305603;22;20111;-75
2021/08/07 04:31:54;;;;;;;0.40;0.40;;;;;;;11.95;100.00;97788.13;6305337;22;20045;-75
2021/08/07 04:34:58;;;;;;;0.50;0.38;;;;;;;12.09;100.00;97791.69;6305708;22;20064;-75
2021/08/07 04:38:01;;;;;;;0.28;0.20;;;;;;;12.05;100.00;97785.66;6305899;22;20346;-76
2021/08/07 04:41:03;;;;;;;1.55;0.47;;;;;;;11.99;100.00;97777.41;6305256;22;20025;-76
2021/08/07 04:44:07;;;;;;;0.82;0.65;;;;;;;11.95;100.00;97776.97;6305524;22;20098;-76
2021/08/07 04:47:10;;;;;;;0.40;0.32;;;;;;;11.99;100.00;97777.41;6305586;22;20084;-75
2021/08/07 04:50:13;;;;;;;11.93;1.05;;;;;;;11.97;100.00;97785.56;6305845;22;20145;-75
2021/08/07 04:53:16;;;;;;;0.50;0.20;;;;;;;11.98;100.00;97792.66;6286659;22;20022;-75
2021/08/07 04:56:19;;;;;;;0.32;0.20;;;;;;;11.98;100.00;97792.66;6304383;22;20026;-76
2021/08/07 04:59:22;;;;;;;0.25;0.10;;;;;;;11.92;100.00;97789.22;6305130;22;20445;-77
2021/08/07 05:02:25;;;;;;;1.85;0.35;;;;;;;11.86;100.00;97783.00;6304870;22;20027;-77
2021/08/07 05:05:28;;;;;;;1.20;0.47;;;;;;;11.85;100.00;97789.09;6305660;22;20025;-76
2021/08/07 05:08:35;;;;;;;7.30;0.57;;;;;;;11.81;100.00;97778.25;6305558;22;20076;-75
2021/08/07 05:11:38;;;;;;;0.85;0.50;;;;;;;11.74;100.00;97776.09;6304999;22;20042;-75
2021/08/07 05:14:41;;;;;;;7.03;0.90;;;;;;;11.72;100.00;97775.88;6304455;22;20394;-75
2021/08/07 05:17:44;;;;;;;1.63;0.30;;;;;;;11.67;100.00;97768.38;6305476;22;20030;-75
2021/08/07 05:20:47;;;;;;;0.73;0.73;;;;;;;11.69;100.00;97765.81;6305295;22;20066;-76
2021/08/07 05:23:50;;;;;;;1.17;0.35;;;;;;;11.66;100.00;97772.41;6286319;22;20130;-76
2021/08/07 05:26:53;;;;;;;7.68;0.80;;;;;;;11.71;100.00;97771.59;6305223;22;20484;-75
2021/08/07 05:29:56;;;;;;;1.75;0.25;;;;;;;11.84;100.00;97777.19;6305084;22;20026;-75
2021/08/07 05:32:59;;;;;;;3.60;0.98;;;;;;;11.98;100.00;97769.56;6304732;22;20049;-75
2021/08/07 05:36:02;;;;;;;0.70;0.40;;;;;;;12.11;100.00;97778.69;6305276;22;20061;-75
2021/08/07 05:39:05;;;;;;;4.43;0.60;;;;;;;12.26;100.00;97783.00;6305185;22;20551;-75
2021/08/07 05:42:08;;;;;;;4.78;0.80;;;;;;;12.42;100.00;97790.28;6305278;22;20026;-76
2021/08/07 05:45:11;;;;;;;8.07;1.38;;;;;;;12.53;100.00;97779.66;6304939;22;20026;-75
2021/08/07 05:48:14;;;;;;;9.00;0.98;;;;;;;12.65;100.00;97768.97;6305290;22;20066;-75
2021/08/07 05:51:17;;;;;;;3.92;1.10;;;;;;;12.84;100.00;97772.41;6304510;22;20089;-76
2021/08/07 05:54:20;;;;;;;0.55;0.20;;;;;;;12.98;100.00;97767.50;6305004;22;20050;-76
2021/08/07 05:57:23;;;;;;;9.73;0.82;;;;;;;13.09;100.00;97762.44;6304992;22;20076;-76
2021/08/07 06:00:26;;;;;;;0.77;0.77;;;;;;;13.21;100.00;97751.78;6304691;22;20099;-75
2021/08/07 06:03:29;;;;;;;2.47;0.30;;;;;;;13.28;100.00;97739.88;6304309;22;20018;-74
2021/08/07 06:06:32;;;;;;;0.55;0.30;;;;;;;13.32;100.00;97743.13;6304418;22;20115;-75
2021/08/07 06:09:35;;;;;;;2.92;0.73;;;;;;;13.36;100.00;97741.44;6304707;22;20026;-75
2021/08/07 06:12:38;;;;;;;1.25;0.47;;;;;;;13.37;100.00;97726.19;6304574;22;20022;-75
2021/08/07 06:15:42;;;;;;;0.17;0.17;;;;;;;13.36;100.00;97741.44;6303617;22;20030;-75
2021/08/07 06:18:45;;;;;;;0.70;0.28;;;;;;;13.31;100.00;97728.38;6303714;22;20340;-75
2021/08/07 06:21:49;;;;;;;0.25;0.25;;;;;;;13.36;100.00;97737.94;6304360;22;20029;-76
2021/08/07 06:24:52;;;;;;;3.05;0.20;;;;;;;13.36;100.00;97735.88;6304525;22;20088;-76
2021/08/07 06:27:56;;;;;;;2.03;1.10;;;;;;;13.44;100.00;97725.50;6303436;22;20022;-75
2021/08/07 06:30:58;;;;;;;0.38;0.38;;;;;;;13.53;100.00;97716.66;6285124;22;20388;-75
2021/08/07 06:34:02;;;;;;;4.03;0.98;;;;;;;13.56;100.00;97709.19;6303832;22;20022;-75
2021/08/07 06:37:06;;;;;;;1.10;0.32;;;;;;;13.63;100.00;97720.44;6304272;22;20104;-75
2021/08/07 06:40:09;;;;;;;0.40;0.30;;;;;;;13.69;100.00;97711.88;6304679;22;20072;-76
2021/08/07 06:43:12;;;;;;;0.52;0.50;;;;;;;13.71;100.00;97709.28;6304886;22;20022;-75
2021/08/07 06:46:15;;;;;;;3.78;0.25;;;;;;;13.77;100.00;97711.97;6304698;22;20140;-75
2021/08/07 06:49:18;;;;;;;0.95;0.50;;;;;;;13.82;100.00;97711.78;6304405;22;20069;-76
2021/08/07 06:52:22;;;;;;;0.73;0.43;;;;;;;13.83;100.00;97704.16;6304814;22;20062;-76
2021/08/07 06:55:25;;;;;;;2.97;0.38;;;;;;;13.83;100.00;97698.56;6304479;22;20103;-76
2021/08/07 06:58:28;;;;;;;0.20;0.20;;;;;;;13.94;100.00;97704.63;6304366;22;20026;-75
2021/08/07 07:01:31;;;;;;;0.20;0.10;;;;;;;13.99;100.00;97700.91;6304199;22;20014;-75
2021/08/07 07:04:34;;;;;;;0.40;0.20;;;;;;;14.07;100.00;97706.56;6304446;22;20029;-76
2021/08/07 07:07:38;;;;;;;1.20;0.50;;;;;;;14.29;100.00;97689.88;6304591;22;20038;-76
2021/08/07 07:10:41;;;;;;;0.40;0.10;;;;;;;14.55;100.00;97688.88;6304144;22;20146;-76
2021/08/07 07:13:45;;;;;;;0.77;0.47;;;;;;;14.74;100.00;97689.31;6304483;22;20050;-76
2021/08/07 07:16:49;;;;;;;4.70;0.28;;;;;;;14.95;100.00;97691.97;6304672;22;20105;-76
2021/08/07 07:19:52;;;;;;;0.10;0.10;;;;;;;15.13;100.00;97697.25;6306680;22;20325;-76
2021/08/07 07:22:55;;;;;;;4.03;0.82;;;;;;;15.24;100.00;97689.75;6306570;22;20379;-76
2021/08/07 07:25:58;;;;;;;0.35;0.20;;;;;;;15.10;100.00;97675.91;6306555;22;20066;-75
2021/08/07 07:29:01;;;;;;;1.05;0.50;;;;;;;15.06;100.00;97692.38;6306253;22;20444;-76
2021/08/07 07:32:05;;;;;;;1.13;0.43;;;;;;;15.08;100.00;97695.34;6305617;22;20468;-76
2021/08/07 07:35:09;;;;;;;2.65;0.43;;;;;;;15.05;100.00;97696.47;6305864;22;20057;-75
2021/08/07 07:38:12;;;;;;;6.70;0.45;;;;;;;14.98;100.00;97708.44;6306197;22;20420;-75
2021/08/07 07:41:15;;;;;;;0.20;0.10;;;;;;;14.88;100.00;97696.25;6306320;22;20070;-75
2021/08/07 07:44:18;;;;;;;0.38;0.28;;;;;;;14.84;100.00;97703.50;6305616;22;20073;-75
2021/08/07 07:47:21;;;;;;;3.47;0.15;;;;;;;14.85;100.00;97702.97;6306471;22;20018;-75
2021/08/07 07:50:24;;;;;;;4.40;0.77;;;;;;;14.96;100.00;97699.84;6305822;22;20072;-75
2021/08/07 07:53:27;;;;;;;0.40;0.30;;;;;;;15.01;100.00;97703.75;6305428;22;20026;-75
2021/08/07 07:56:30;;;;;;;4.57;0.40;;;;;;;15.06;100.00;97697.97;6305924;22;20471;-75
2021/08/07 07:59:34;;;;;;;0.45;0.20;;;;;;;15.25;100.00;97691.25;6305438;22;20096;-76
2021/08/07 08:02:37;;;;;;;1.35;0.32;;;;;;;15.50;100.00;97695.03;6305638;22;20084;-75
2021/08/07 08:05:40;;;;;;;2.17;0.38;;;;;;;15.71;100.00;97687.91;6305673;22;20045;-75
2021/08/07 08:08:43;;;;;;;1.83;1.10;;;;;;;15.89;100.00;97692.38;6305961;22;20045;-76
2021/08/07 08:11:46;;;;;;;0.10;0.10;;;;;;;16.12;100.00;97691.56;6305849;22;20023;-75
2021/08/07 08:14:49;;;;;;;4.47;0.82;;;;;;;16.33;100.00;97684.38;6306439;22;20077;-75
2021/08/07 08:17:52;;;;;;;1.08;0.17;;;;;;;16.34;100.00;97691.50;6308137;22;20062;-76
2021/08/07 08:20:55;;;;;;;6.05;0.50;;;;;;;16.29;100.00;97681.22;6306328;22;20345;-76
2021/08/07 08:23:58;;;;;;;12.27;0.73;;;;;;;16.30;100.00;97693.19;6305955;22;20026;-76
2021/08/07 08:27:01;;;;;;;0.47;0.10;;;;;;;16.27;100.00;97686.66;6306133;22;20087;-76
2021/08/07 08:30:07;;;;;;;0.10;0.00;;;;;;;16.30;100.00;97690.41;6305474;22;20463;-76
2021/08/07 08:33:10;;;;;;;8.95;0.68;;;;;;;16.37;100.00;97678.38;6305727;22;20021;-76
2021/08/07 08:36:13;;;;;;;0.43;0.10;;;;;;;16.47;100.00;97682.84;6304947;22;20025;-75
2021/08/07 08:39:16;;;;;;;1.83;0.55;;;;;;;16.53;100.00;97680.59;6305681;22;20524;-75
2021/08/07 08:42:20;;;;;;;0.85;0.20;;;;;;;16.59;100.00;97672.69;6304723;22;20022;-75
2021/08/07 08:45:24;;;;;;;1.33;0.47;;;;;;;16.66;100.00;97676.78;6304988;22;20100;-76
2021/08/07 08:48:29;;;;;;;1.85;0.20;;;;;;;16.52;100.00;97672.72;6286490;22;20479;-75
2021/08/07 08:51:32;;;;;;;2.53;0.25;;;;;;;16.46;100.00;97675.72;6305020;22;20518;-75
2021/08/07 08:54:35;;;;;;;4.90;0.20;;;;;;;16.54;100.00;97675.72;6305485;22;20026;-77
2021/08/07 08:57:38;;;;;;;1.45;0.32;;;;;;;16.51;100.00;97666.38;6305665;22;20080;-76
2021/08/07 09:00:41;;;;;;;0.25;0.20;;;;;;;16.46;100.00;97664.47;6305553;22;20102;-77
2021/08/07 09:03:46;;;;;;;0.10;0.10;;;;;;;16.48;100.00;97663.91;6305616;22;20068;-77
2021/08/07 09:06:50;;;;;;;0.45;0.20;;;;;;;16.60;100.00;97657.31;6304991;22;20022;-77
2021/08/07 09:09:56;;;;;;;1.55;0.45;;;;;;;16.73;100.00;97650.69;6305076;22;20026;-75
2021/08/07 09:13:00;;;;;;;0.35;0.10;;;;;;;16.87;100.00;97657.53;6305087;22;20408;-77
2021/08/07 09:16:08;;;;;;;3.20;0.25;;;;;;;16.83;100.00;97648.03;6305071;22;20475;-76
2021/08/07 09:19:10;;;;;;;0.20;0.20;;;;;;;16.65;100.00;97658.44;6286600;22;20465;-76
2021/08/07 09:22:21;;;;;;;0.20;0.15;;;;;;;16.58;100.00;97650.78;6305827;22;20471;-76
2021/08/07 09:25:26;;;;;;;0.20;0.10;;;;;;;16.50;100.00;97659.22;6304847;22;20029;-76
2021/08/07 09:28:45;;;;;;;2.83;1.00;;;;;;;16.47;100.00;97646.31;6305325;22;20248;-76
2021/08/07 09:31:58;;;;;;;0.40;0.40;;;;;;;16.54;100.00;97654.00;6304910;22;20073;-76
2021/08/07 09:35:06;;;;;;;1.48;0.30;;;;;;;16.71;100.00;97653.34;6305266;22;20027;-76
2021/08/07 09:38:09;;;;;;;4.00;0.20;;;;;;;16.86;100.00;97658.88;6304815;22;20077;-76
2021/08/07 09:41:13;;;;;;;1.10;0.10;;;;;;;17.09;100.00;97653.81;6304853;22;20380;-76
2021/08/07 09:44:19;;;;;;;0.22;0.20;;;;;;;17.56;100.00;97640.91;6304963;22;20472;-79
2021/08/07 09:47:22;;;;;;;0.20;0.10;;;;;;;17.88;100.00;97635.91;6304612;22;20025;-76
2021/08/07 09:50:27;;;;;;;0.65;0.40;;;;;;;18.19;100.00;97639.84;6305165;22;20018;-76
2021/08/07 09:53:30;;;;;;;12.25;1.65;;;;;;;18.40;100.00;97641.50;6305211;22;20340;-76
2021/08/07 09:56:49;;;;;;;0.52;0.17;;;;;;;18.56;100.00;97637.91;6305194;22;20037;-76
2021/08/07 09:59:52;;;;;;;4.07;0.20;;;;;;;18.69;100.00;97629.09;6305019;22;20510;-76
2021/08/07 10:03:13;;;;;;;0.13;0.03;;;;;;;18.86;100.00;97629.03;6304848;22;20025;-76
2021/08/07 10:06:22;;;;;;;0.50;0.10;;;;;;;18.95;100.00;97630.41;6304736;22;20069;-76
2021/08/07 10:09:32;;;;;;;1.55;0.30;;;;;;;19.10;100.00;97624.53;6284873;22;20061;-76
2021/08/07 10:12:45;;;;;;;2.95;0.20;;;;;;;18.96;100.00;97628.34;6303717;22;20388;-75
2021/08/07 10:15:48;;;;;;;5.57;0.55;;;;;;;18.86;100.00;97631.13;6285281;22;20639;-75
2021/08/07 10:18:52;;;;;;;0.57;0.20;;;;;;;18.74;100.00;97630.16;6304130;22;20022;-75
2021/08/07 10:21:55;;;;;;;0.47;0.10;;;;;;;18.62;100.00;97623.56;6304513;22;20382;-75
2021/08/07 10:25:02;;;;;;;0.10;0.10;;;;;;;18.37;100.00;97631.38;6304550;22;20072;-75
2021/08/07 10:28:05;;;;;;;2.50;0.85;;;;;;;18.01;100.00;97635.56;6304063;22;20467;-75
2021/08/07 10:31:13;;;;;;;3.10;0.10;;;;;;;17.71;100.00;97627.44;6303717;22;20046;-75
2021/08/07 10:34:16;;;;;;;0.20;0.10;;;;;;;17.39;100.00;97633.13;6304231;22;20349;-75
2021/08/07 10:37:19;;;;;;;2.92;0.13;;;;;;;17.08;100.00;97637.53;6304046;22;20065;-75
2021/08/07 10:40:23;;;;;;;2.05;0.28;;;;;;;16.87;100.00;97642.75;6304661;22;20472;-75
2021/08/07 10:43:28;;;;;;;0.22;0.05;;;;;;;16.67;100.00;97645.28;6304496;22;20042;-75
2021/08/07 10:46:31;;;;;;;0.73;0.30;;;;;;;16.38;100.00;97652.53;6304963;22;20038;-75
2021/08/07 10:49:47;;;;;;;5.82;0.73;;;;;;;16.07;100.00;97651.13;6304581;22;20028;-75
2021/08/07 10:52:55;;;;;;;0.47;0.45;;;;;;;15.82;100.00;97659.47;6305078;22;20476;-74
2021/08/07 10:55:58;;;;;;;0.20;0.10;;;;;;;15.59;100.00;97644.69;6306310;22;20345;-74
2021/08/07 10:59:10;;;;;;;0.20;0.10;;;;;;;15.49;100.00;97649.41;6305992;22;20073;-75
2021/08/07 11:02:19;;;;;;;0.57;0.20;;;;;;;15.39;100.00;97650.50;6305952;22;20064;-74
2021/08/07 11:05:52;;;;;;;2.65;0.20;;;;;;;15.25;100.00;97660.41;6303774;22;20137;-75
2021/08/07 11:09:16;;;;;;;0.20;0.20;;;;;;;15.12;100.00;97662.09;6306213;22;20353;-75
2021/08/07 11:12:20;;;;;;;0.50;0.50;;;;;;;15.09;100.00;97659.66;6305462;22;20045;-75
2021/08/07 11:15:32;;;;;;;1.70;0.30;;;;;;;15.08;100.00;97658.91;6305977;22;20077;-76
2021/08/07 11:18:35;;;;;;;2.03;0.98;;;;;;;15.06;100.00;97669.94;6306552;22;20023;-76
2021/08/07 11:21:53;;;;;;;5.95;0.45;;;;;;;15.06;100.00;97669.94;6306633;22;20029;-76
2021/08/07 11:24:57;;;;;;;1.65;0.32;;;;;;;15.01;100.00;97665.25;6306600;22;20018;-76
2021/08/07 11:27:59;;;;;;;0.63;0.30;;;;;;;14.93;100.00;97678.50;6306311;22;20383;-76
2021/08/07 11:31:15;;;;;;;4.03;0.85;;;;;;;14.96;100.00;97665.44;6306207;22;20102;-76
2021/08/07 11:34:23;;;;;;;7.28;0.90;;;;;;;14.95;100.00;97664.69;6305226;22;20025;-76
2021/08/07 11:37:25;;;;;;;16.08;2.88;;;;;;;15.02;100.00;97675.16;6306020;22;20075;-76
2021/08/07 11:40:49;;;;;;;3.75;0.90;;;;;;;15.10;100.00;97675.91;6306192;22;20026;-76
2021/08/07 11:43:56;;;;;;;1.58;0.68;;;;;;;15.21;100.00;97666.38;6305950;22;20029;-76
2021/08/07 11:46:59;;;;;;;2.75;0.77;;;;;;;15.38;100.00;97671.44;6306084;22;20145;-76
2021/08/07 11:50:05;;;;;;;0.43;0.35;;;;;;;15.49;100.00;97673.88;6306356;22;20022;-77
2021/08/07 11:53:16;;;;;;;0.30;0.30;;;;;;;15.51;100.00;97674.06;6306273;22;20072;-76
2021/08/07 11:56:24;;;;;;;1.13;0.85;;;;;;;15.54;100.00;97667.34;6305060;22;20045;-76
2021/08/07 11:59:29;;;;;;;4.25;0.80;;;;;;;15.55;100.00;97666.06;6305596;22;20022;-76
2021/08/07 12:02:31;;;;;;;2.40;0.47;;;;;;;15.58;100.00;97667.72;6306367;22;20065;-76
2021/08/07 12:05:37;;;;;;;0.47;0.15;;;;;;;15.56;100.00;97670.34;6306600;22;20046;-76
2021/08/07 12:08:40;;;;;;;1.08;0.30;;;;;;;15.53;100.00;97666.59;6305753;22;20022;-76
2021/08/07 12:11:43;;;;;;;2.60;0.43;;;;;;;15.54;100.00;97672.97;6305373;22;20018;-76
2021/08/07 12:14:46;;;;;;;2.28;0.57;;;;;;;15.67;100.00;97669.94;6305735;22;20349;-76
2021/08/07 12:17:50;;;;;;;2.10;0.55;;;;;;;15.80;100.00;97662.09;6305982;22;20025;-76
2021/08/07 12:20:53;;;;;;;1.60;0.77;;;;;;;15.96;100.00;97662.78;6305563;22;20037;-76
2021/08/07 12:24:05;;;;;;;4.57;1.33;;;;;;;16.20;100.00;97667.75;6305629;22;20380;-76
2021/08/07 12:27:10;;;;;;;2.55;0.30;;;;;;;16.46;100.00;97664.47;6305619;22;20022;-75
2021/08/07 12:30:13;;;;;;;2.88;0.75;;;;;;;16.72;100.00;97659.72;6305545;22;20084;-76
2021/08/07 12:33:19;;;;;;;1.17;0.30;;;;;;;16.97;100.00;97661.22;6305241;22;20041;-76
2021/08/07 12:36:21;;;;;;;1.25;0.45;;;;;;;17.13;100.00;97664.69;6304957;22;20029;-76
2021/08/07 12:39:25;;;;;;;0.73;0.52;;;;;;;17.37;100.00;97655.47;6304943;22;20026;-75
2021/08/07 12:42:30;;;;;;;1.15;0.30;;;;;;;17.68;100.00;97653.94;6304676;22;20038;-78
2021/08/07 12:45:33;;;;;;;1.20;0.10;;;;;;;17.82;100.00;97655.09;6305502;22;20065;-77
2021/08/07 12:48:45;;;;;;;1.85;0.20;;;;;;;17.80;100.00;97645.75;6304914;22;20468;-77
2021/08/07 12:52:00;;;;;;;13.32;1.05;;;;;;;17.83;100.00;97648.16;6305367;22;20068;-75
2021/08/07 12:55:08;;;;;;;0.63;0.45;;;;;;;17.83;100.00;97648.16;6305106;22;20137;-76
2021/08/07 12:58:11;;;;;;;3.13;0.28;;;;;;;17.83;100.00;97650.97;6305757;22;20045;-74
2021/08/07 13:01:16;;;;;;;2.50;0.25;;;;;;;17.74;100.00;97657.25;6304731;22;20026;-77
2021/08/07 13:04:19;;;;;;;4.22;0.63;;;;;;;17.58;100.00;97653.09;6304786;22;20023;-76
2021/08/07 13:07:40;;;;;;;0.50;0.43;;;;;;;17.45;100.00;97653.38;6303607;22;20026;-77
2021/08/07 13:10:43;;;;;;;0.90;0.25;;;;;;;17.36;100.00;97662.44;6305019;22;20023;-76
2021/08/07 13:13:56;;;;;;;0.82;0.20;;;;;;;17.19;100.00;97665.19;6305077;22;20148;-77
2021/08/07 13:16:59;;;;;;;0.43;0.10;;;;;;;17.06;100.00;97668.28;6304926;22;20026;-77
2021/08/07 13:20:04;;;;;;;1.38;0.20;;;;;;;16.80;100.00;97671.66;6305255;22;20076;-74
2021/08/07 13:23:11;;;;;;;2.60;0.40;;;;;;;16.65;100.00;97664.78;6305485;22;20518;-77
2021/08/07 13:26:14;;;;;;;5.22;0.55;;;;;;;16.50;100.00;97676.09;6305509;22;20076;-73
2021/08/07 13:29:19;;;;;;;1.58;0.60;;;;;;;16.49;100.00;97673.84;6304384;22;20022;-73
2021/08/07 13:32:24;;;;;;;2.67;0.60;;;;;;;16.46;100.00;97677.75;6304573;22;20467;-74
2021/08/07 13:35:27;;;;;;;3.85;0.22;;;;;;;16.35;100.00;97681.03;6304572;22;20021;-80
2021/08/07 13:38:32;;;;;;;0.88;0.10;;;;;;;16.31;100.00;97681.38;6285740;22;20022;-79
2021/08/07 13:41:43;;;;;;;2.92;0.73;;;;;;;16.17;100.00;97680.13;6304859;22;20022;-74
2021/08/07 13:44:47;;;;;;;0.25;0.25;;;;;;;16.12;100.00;97681.09;6304888;22;20376;-74
2021/08/07 13:47:50;;;;;;;0.30;0.20;;;;;;;16.23;100.00;97672.25;6305008;22;20021;-75
2021/08/07 13:50:54;;;;;;;5.85;0.43;;;;;;;16.53;100.00;97674.22;6305197;22;20023;-74
2021/08/07 13:53:57;;;;;;;0.40;0.10;;;;;;;16.68;100.00;97671.31;6305228;22;20022;-75
2021/08/07 13:57:01;;;;;;;0.73;0.32;;;;;;;16.79;100.00;97678.56;6304885;22;20030;-73
2021/08/07 14:00:05;;;;;;;2.83;0.38;;;;;;;16.81;100.00;97676.69;6304593;22;20026;-73
2021/08/07 14:03:08;;;;;;;2.75;0.55;;;;;;;16.79;100.00;97670.13;6304413;22;20026;-73
2021/08/07 14:06:12;;;;;;;0.82;0.30;;;;;;;16.81;100.00;97678.75;6305090;22;20022;-74
2021/08/07 14:09:17;;;;;;;0.45;0.28;;;;;;;16.79;100.00;97679.31;6305020;22;20075;-72
2021/08/07 14:12:20;;;;;;;1.15;0.57;;;;;;;16.60;100.00;97681.88;6284684;22;20096;-76
2021/08/07 14:15:23;;;;;;;6.47;0.40;;;;;;;16.42;100.00;97675.34;6304709;22;20026;-75
2021/08/07 14:18:26;;;;;;;0.57;0.10;;;;;;;16.33;100.00;97687.19;6304920;22;20084;-77
2021/08/07 14:21:29;;;;;;;3.58;0.70;;;;;;;16.60;100.00;97687.50;6305362;22;20027;-75
2021/08/07 14:24:32;;;;;;;0.20;0.10;;;;;;;16.88;100.00;97692.03;6287718;22;20022;-75